Tiempo atmosférico en la estación meteorológica de Irún, Gipuzkoa (120 m.)



Fecha
DESCASC
Temp. máxima en grados centígrados (hora)
DESCASC
Temp. mínima en grados centígrados (hora)
DESCASC
Temp. media en grados centígrados
DESCASC
Racha de viento máxima en m/sg (hora)
DESCASC
Velocidad máxima media en intervalos de 10 minutos(hora)
DESCASC
Precipitaciones diarias en mm
DESCASC
Precipitaciones de 00:00 a 06:00 en mm
DESCASC
Precipitaciones de 06:00 a 12:00 en mm
DESCASC
Precipitaciones de 12:00 a 18:00 en mm
DESCASC
Precipitaciones de 18:00 a 24:00 en mm
DESCASC
13-10-2019 28 (15:30) 19.6 (22:40) 23.8 13.06 (11:20) 4.17 (11:20) 0 0 0 0 0
12-10-2019 27.8 (19:20) 20.7 (03:00) 24.3 13.61 (22:30) 4.17 (19:10) 0 0 0 0 0
11-10-2019 28.1 (15:50) 12.7 (02:40) 20.4 9.17 (23:20) 2.5 (23:59) 0 0 0 0 0
10-10-2019 19.6 (15:10) 12.4 (00:00) 16 5 (02:00) 1.94 (02:00) 0 0 0 0 0
09-10-2019 18 (16:30) 14 (00:00) 16 7.22 (11:00) 3.06 (12:20) 7 0.6 1 5.2 0.2
08-10-2019 24.6 (15:50) 13.8 (00:00) 19.2 6.94 (19:30) 3.06 (21:10) 4 0 0 0 4
07-10-2019 20.4 (15:30) 13.1 (00:00) 16.8 3.33 (04:00) 1.67 (15:40) 0 0 0 0 0
06-10-2019 17.9 (11:20) 15.1 (00:00) 16.5 6.39 (15:20) 2.5 (11:10) 1.2 0 0 0.8 0.4
05-10-2019 20.7 (15:40) 14.9 (00:00) 17.8 3.89 (04:00) 1.67 (04:40) 0.2 0 0.2 0 0
04-10-2019 18.3 (01:20) 16 (00:00) 17.1 5 (00:30) 2.5 (00:50) 2 0 0.8 1.2 0
03-10-2019 21 (16:10) 13.9 (00:00) 17.4 4.17 (15:00) 1.94 (15:20) 0 0 0 0 0
02-10-2019 18.4 (01:30) 14.7 (00:00) 16.5 12.22 (02:50) 4.72 (14:20) 45.4 17.4 21.4 6.4 0.2
01-10-2019 21.9 (14:40) 16.7 (00:00) 19.3 9.72 (23:30) 3.89 (22:50) 0.6 0 0 0 0.6
30-09-2019 24.5 (16:00) 17.6 (00:00) 21.1 5 (12:30) 2.22 (13:50) 0.2 0 0.2 0 0
29-09-2019 26.1 (16:00) 16.1 (00:00) 21.1 4.72 (17:40) 1.94 (17:30) 0 0 0 0 0
28-09-2019 21 (16:30) 14.8 (00:00) 17.9 5 (00:20) 2.5 (03:10) 1.8 1.6 0.2 0 0
27-09-2019 22.7 (15:20) 14.7 (00:00) 18.7 5.83 (14:00) 2.78 (14:00) 0.2 0 0 0 0.2
26-09-2019 21.6 (14:30) 14.9 (00:00) 18.3 4.17 (13:40) 1.67 (13:50) 0 0 0 0 0
25-09-2019 21.5 (14:50) 16.3 (00:00) 18.9 7.5 (08:20) 3.33 (08:10) 0.2 0.2 0 0 0
24-09-2019 24.3 (07:30) 16.9 (00:00) 20.6 10.83 (07:30) 4.17 (07:20) 0.2 0 0 0 0.2
23-09-2019 23.2 (14:20) 14 (00:00) 18.6 3.06 (14:40) 1.39 (14:40) 0 0 0 0 0
22-09-2019 24.6 (01:50) 15.7 (00:00) 20.2 8.61 (03:20) 2.5 (01:50) 19.4 3.4 16 0 0
21-09-2019 26.8 (15:10) 22.3 (00:00) 24.5 17.78 (09:30) 4.44 (06:50) 0 0 0 0 0
20-09-2019 29.8 (16:30) 16 (00:00) 22.9 8.33 (21:30) 2.78 (22:30) 0 0 0 0 0
19-09-2019 22.6 (15:10) 16.1 (00:00) 19.4 4.72 (00:20) 1.94 (00:40) 0 0 0 0 0
18-09-2019 23.9 (14:30) 18.4 (00:00) 21.1 6.94 (00:10) 3.89 (00:10) 10 9.8 0.2 0 0
17-09-2019 26.5 (15:20) 17.6 (00:00) 22.1 6.94 (23:59) 3.33 (23:59) 0 0 0 0 0
16-09-2019 25.3 (16:10) 18.4 (00:00) 21.8 4.17 (17:30) 2.22 (17:20) 1.8 1.6 0.2 0 0
15-09-2019 25.7 (15:10) 18.5 (00:00) 22.1 6.67 (17:20) 2.78 (17:20) 0.4 0 0 0.4 0

Gráficas

Temp. máximas Temp. mínimas Temp. medias Precipitaciones Rachas de viento máximas Velocidades máximas media en intervalos de 10 minutos

Datos horarios

Fecha y hora oficial Temperatura (ºC) Velocidad del viento (km/h) Dirección del viento Racha (km/h) Dirección de racha Precipitación (mm) Presión (hPa) Tendencia (hPa) Humedad (%)
2019-10-14 23:00:00 13.4 9 Sudoeste 20 Sudoeste 1.2 -- -- 91
2019-10-14 22:00:00 14.7 10 Noroeste 26 Sudoeste 0.4 -- -- 83
2019-10-14 21:00:00 16.2 9 Sudoeste 21 Sudoeste 0 -- -- 86
2019-10-14 20:00:00 16.5 3 Oeste 12 Noroeste 0 -- -- 87
2019-10-14 19:00:00 17.2 3 Norte 19 Norte 0 -- -- 84
2019-10-14 18:00:00 17.3 6 Noroeste 16 Norte 0 -- -- 86
2019-10-14 17:00:00 18.4 7 Norte 14 Noroeste 0 -- -- 84
2019-10-14 16:00:00 18.1 6 Noroeste 27 Sudoeste 2.2 -- -- 90
2019-10-14 15:00:00 16.2 10 Sudoeste 33 Oeste 7.8 -- -- 90
2019-10-14 14:00:00 19.4 13 Noroeste 24 Norte 0 -- -- 79
2019-10-14 13:00:00 20 6 Nordeste 24 Norte 0 -- -- 80
2019-10-14 12:00:00 20.2 3 Este 13 Noroeste 0 -- -- 81
2019-10-14 11:00:00 19.6 4 Sur 22 Sudoeste 0 -- -- 80
2019-10-14 10:00:00 21.4 7 Sudoeste 22 Sur 0 -- -- 70
2019-10-14 09:00:00 23.6 7 Sudeste 31 Oeste 0 -- -- 53
2019-10-14 08:00:00 23.4 10 Sudoeste 36 Sur 0 -- -- 53
2019-10-14 07:00:00 23.8 9 Sudeste 35 Sudeste 0 -- -- 51
2019-10-14 06:00:00 24.1 11 Sudeste 47 Sudoeste 0 -- -- 48
2019-10-14 05:00:00 23.3 5 Sur 17 Este 0 -- -- 52
2019-10-14 04:00:00 23.2 4 Norte 18 Sur 0 -- -- 52
2019-10-14 03:00:00 24.3 3 Sudeste 32 Sur 0 -- -- 49
2019-10-14 02:00:00 24.8 12 Sur 42 Sur 0 -- -- 48
2019-10-14 01:00:00 24.6 10 Sur 48 Sur 0 -- -- 55
2019-10-14 00:00:00 21.9 7 Sudoeste 19 Sur 0 -- -- 64
2019-10-13 23:00:00 19.6 2 Sudoeste 6 Oeste 0 -- -- 76
2019-10-13 22:00:00 20.6 4 Sudoeste 21 Sudoeste 0 -- -- 72
2019-10-13 21:00:00 21.8 11 Sudoeste 30 Sudoeste 0 -- -- 68
2019-10-13 20:00:00 24.2 11 Sudoeste 26 Sur 0 -- -- 61
2019-10-13 19:00:00 26.4 5 Sudeste 13 Sudeste 0 -- -- 46
2019-10-13 18:00:00 27.1 5 Sudeste 28 Sur 0 -- -- 45
2019-10-13 17:00:00 27.2 5 Sudeste 26 Sur 0 -- -- 45
2019-10-13 16:00:00 28 8 Sudeste 28 Sur 0 -- -- 43
2019-10-13 15:00:00 27.4 11 Sur 37 Sur 0 -- -- 45
2019-10-13 14:00:00 26.5 12 Sudeste 37 Sur 0 -- -- 49
2019-10-13 13:00:00 25.8 15 Sudeste 41 Sur 0 -- -- 50
2019-10-13 12:00:00 24.7 6 Sur 47 Sur 0 -- -- 57
2019-10-13 11:00:00 24.1 9 Sur 34 Sudeste 0 -- -- 56
2019-10-13 10:00:00 23.4 10 Sudeste 35 Sudeste 0 -- -- 56
2019-10-13 09:00:00 23.1 11 Sudeste 37 Sudeste 0 -- -- 56
2019-10-13 08:00:00 23.4 8 Sudeste 41 Sur 0 -- -- 53
2019-10-13 07:00:00 24.2 9 Sudeste 29 Sur 0 -- -- 49
2019-10-13 06:00:00 23.6 5 Sudeste 33 Sudeste 0 -- -- 51
2019-10-13 05:00:00 23.7 7 Sudeste 28 Sur 0 -- -- 49
2019-10-13 04:00:00 23.9 5 Sudeste 29 Sudeste 0 -- -- 53
2019-10-13 03:00:00 24.4 7 Sudeste 27 Sudeste 0 -- -- 53
2019-10-13 02:00:00 25.3 9 Sudeste 28 Sudeste 0 -- -- 50
2019-10-13 01:00:00 25.9 8 Sudeste 31 Sur 0 -- -- 50
2019-10-13 00:00:00 25.8 7 Sudeste 25 Sudeste 0 -- -- 51
2019-10-12 23:00:00 26.8 9 Sudeste 49 Sur 0 -- -- 46
2019-10-12 22:00:00 26.4 11 Sudeste 33 Sur 0 -- -- 48
2019-10-12 21:00:00 26.4 13 Sudeste 37 Sudeste 0 -- -- 48
2019-10-12 20:00:00 27.3 11 Sudeste 46 Sur 0 -- -- 45
2019-10-12 19:00:00 27 8 Sudeste 21 Sudeste 0 -- -- 46
2019-10-12 18:00:00 26 6 Sudeste 20 Sur 0 -- -- 50
2019-10-12 17:00:00 24.6 3 Sudeste 8 Nordeste 0 -- -- 59
2019-10-12 16:00:00 24.3 4 Norte 11 Noroeste 0 -- -- 63
2019-10-12 15:00:00 24.7 4 Norte 24 Oeste 0 -- -- 61
2019-10-12 14:00:00 25.3 9 Noroeste 31 Sur 0 -- -- 55
2019-10-12 13:00:00 25.2 9 Sudeste 32 Sur 0 -- -- 53
2019-10-12 12:00:00 24.9 6 Sudeste 32 Sudeste 0 -- -- 53
2019-10-12 11:00:00 25.1 10 Sudeste 47 Sur 0 -- -- 53
2019-10-12 10:00:00 24.6 9 Sur 35 Sur 0 -- -- 55
2019-10-12 09:00:00 24.7 8 Sudeste 37 Sur 0 -- -- 54
2019-10-12 08:00:00 24.2 10 Sur 31 Sur 0 -- -- 57
2019-10-12 07:00:00 24.4 6 Sudeste 35 Sur 0 -- -- 57
2019-10-12 06:00:00 24.4 7 Sur 21 Sur 0 -- -- 58
2019-10-12 05:00:00 23.3 0 Calma 17 Oeste 0 -- -- 63
2019-10-12 04:00:00 22.4 4 Oeste 11 Este 0 -- -- 68
2019-10-12 03:00:00 20.7 4 Oeste 9 Sudoeste 0 -- -- 80
2019-10-12 02:00:00 22.3 0 Calma 15 Oeste 0 -- -- 72
2019-10-12 01:00:00 25.4 6 Sudoeste 26 Sur 0 -- -- 56
2019-10-12 00:00:00 26 9 Sudoeste 33 Sur 0 -- -- 53
2019-10-11 23:00:00 24 4 Nordeste 17 Este 0 -- -- 60
2019-10-11 22:00:00 22.9 3 Oeste 6 Oeste 0 -- -- 63
2019-10-11 21:00:00 22.7 4 Oeste 7 Sudoeste 0 -- -- 65
2019-10-11 20:00:00 23.4 2 Este 5 Noroeste 0 -- -- 64
2019-10-11 19:00:00 25 0 Calma 6 Nordeste 0 -- -- 66
2019-10-11 18:00:00 26.2 2 Nordeste 5 Sudoeste 0 -- -- 62
2019-10-11 17:00:00 26.8 3 Sudoeste 7 Noroeste 0 -- -- 55
2019-10-11 16:00:00 27.9 0 Calma 12 Oeste 0 -- -- 50
2019-10-11 15:00:00 27.1 7 Sudoeste 19 Sudoeste 0 -- -- 46
2019-10-11 14:00:00 25.5 2 Noroeste 20 Sudoeste 0 -- -- 56
2019-10-11 13:00:00 24.1 4 Sudoeste 17 Oeste 0 -- -- 57
2019-10-11 12:00:00 22 0 Calma 8 Noroeste 0 -- -- 63
2019-10-11 11:00:00 19.9 2 Nordeste 10 Oeste 0 -- -- 73
2019-10-11 10:00:00 18.2 3 Oeste 8 Norte 0 -- -- 68
2019-10-11 09:00:00 17.6 3 Oeste 13 Noroeste 0 -- -- 65
2019-10-11 08:00:00 16.9 2 Oeste 9 Oeste 0 -- -- 65
2019-10-11 07:00:00 16 2 Norte 5 Oeste 0 -- -- 69
2019-10-11 06:00:00 15.3 2 Noroeste 5 Noroeste 0 -- -- 75
2019-10-11 05:00:00 13.8 2 Sudoeste 5 Noroeste 0 -- -- 88
2019-10-11 04:00:00 12.9 0 Calma 3 Nordeste 0 -- -- 93
2019-10-11 03:00:00 12.8 0 Calma 5 Noroeste 0 -- -- 95
2019-10-11 02:00:00 13 0 Calma 5 Sudoeste 0 -- -- 94
2019-10-11 01:00:00 13.1 4 Oeste 6 Oeste 0 -- -- 93
2019-10-11 00:00:00 13.5 2 Oeste 5 Oeste 0 -- -- 93
2019-10-10 23:00:00 13.6 5 Oeste 6 Oeste 0 -- -- 92
2019-10-10 22:00:00 14.2 0 Calma 3 Este 0 -- -- 90
2019-10-10 21:00:00 14.9 0 Calma 2 Este 0 -- -- 87
2019-10-10 20:00:00 15.6 0 Calma 5 Nordeste 0 -- -- 85
2019-10-10 19:00:00 16.9 0 Calma 11 Este 0 -- -- 79
2019-10-10 18:00:00 17.8 4 Nordeste 13 Norte 0 -- -- 75
2019-10-10 17:00:00 18.6 5 Norte 14 Nordeste 0 -- -- 70
2019-10-10 16:00:00 19.4 5 Norte 16 Nordeste 0 -- -- 65
2019-10-10 15:00:00 19.3 5 Nordeste 12 Nordeste 0 -- -- 63
2019-10-10 14:00:00 18.8 5 Norte 13 Nordeste 0 -- -- 68
2019-10-10 13:00:00 17.5 0 Calma 9 Noroeste 0 -- -- 71
2019-10-10 12:00:00 16 2 Sudoeste 8 Noroeste 0 -- -- 89
2019-10-10 11:00:00 14.5 0 Calma 6 Noroeste 0 -- -- 91
2019-10-10 10:00:00 13.3 4 Oeste 6 Noroeste 0 -- -- 91
2019-10-10 09:00:00 12.7 3 Sudoeste 8 Noroeste 0 -- -- 91
2019-10-10 08:00:00 12.5 0 Calma 7 Sudoeste 0 -- -- 91
2019-10-10 07:00:00 13.4 4 Sur 10 Sur 0 -- -- 88
2019-10-10 06:00:00 14.1 4 Sudoeste 12 Sur 0 -- -- 83
2019-10-10 05:00:00 14.4 5 Sur 13 Sur 0 -- -- 83
2019-10-10 04:00:00 14.2 5 Sudoeste 14 Sudoeste 0 -- -- 84
2019-10-10 03:00:00 14.5 5 Sur 15 Sur 0 -- -- 82
2019-10-10 02:00:00 14.3 7 Sudoeste 18 Sudoeste 0 -- -- 86
2019-10-10 01:00:00 15.1 4 Sudoeste 12 Sur 0 -- -- 82
2019-10-10 00:00:00 15.6 7 Sudoeste 19 Sudoeste 0 -- -- 79
2019-10-09 23:00:00 15.3 6 Sudoeste 17 Oeste 0 -- -- 84
2019-10-09 22:00:00 15.3 6 Sur 15 Oeste 0.2 -- -- 86
2019-10-09 21:00:00 15.6 3 Oeste 12 Noroeste 0 -- -- 79
2019-10-09 20:00:00 15.8 4 Oeste 17 Sudoeste 0 -- -- 82
2019-10-09 19:00:00 16.7 5 Oeste 22 Oeste 0 -- -- 78
2019-10-09 18:00:00 17.5 7 Oeste 23 Sudoeste 0 -- -- 75
2019-10-09 17:00:00 17.4 7 Oeste 25 Noroeste 0 -- -- 79
2019-10-09 16:00:00 16.6 6 Sudoeste 21 Oeste 0 -- -- 86
2019-10-09 15:00:00 14.7 5 Sur 24 Noroeste 4 -- -- 92
2019-10-09 14:00:00 16.3 5 Oeste 21 Sudoeste 0.6 -- -- 89
2019-10-09 13:00:00 14.8 7 Sudoeste 26 Oeste 0.6 -- -- 93
2019-10-09 12:00:00 16.3 8 Sudoeste 22 Oeste 0 -- -- 81
2019-10-09 11:00:00 16 10 Sudoeste 26 Sudoeste 0 -- -- 84
2019-10-09 10:00:00 14.8 8 Sudoeste 19 Sudoeste 0 -- -- 88
2019-10-09 09:00:00 14 9 Sudoeste 18 Sur 0.4 -- -- 96
2019-10-09 08:00:00 14.3 9 Sudoeste 20 Sudoeste 0 -- -- 96
2019-10-09 07:00:00 14.4 6 Sudoeste 20 Sudoeste 0.6 -- -- 96
2019-10-09 06:00:00 14.7 4 Oeste 15 Sur 0.4 -- -- 96
2019-10-09 05:00:00 14.9 7 Sudoeste 18 Sudoeste 0 -- -- 95
2019-10-09 04:00:00 15.1 6 Sudoeste 14 Sudoeste 0 -- -- 96
2019-10-09 03:00:00 15.1 4 Oeste 14 Sudoeste 0 -- -- 96
2019-10-09 02:00:00 15.4 6 Sur 14 Sudoeste 0.2 -- -- 96
2019-10-09 01:00:00 15.7 4 Sur 11 Sudoeste 0 -- -- 96
2019-10-09 00:00:00 16.1 3 Sudoeste 6 Sudoeste 1 -- -- 96
2019-10-08 23:00:00 16.3 0 Calma 18 Noroeste 0.4 -- -- 96
2019-10-08 22:00:00 17 7 Norte 25 Noroeste 1.4 -- -- 95
2019-10-08 21:00:00 18.5 9 Noroeste 20 Noroeste 1.2 -- -- 93
2019-10-08 20:00:00 19.6 3 Sudoeste 25 Oeste 0 -- -- 83
2019-10-08 19:00:00 21.5 4 Oeste 13 Oeste 0 -- -- 69
2019-10-08 18:00:00 22.7 5 Sudoeste 10 Sudoeste 0 -- -- 63
2019-10-08 17:00:00 23.3 4 Sudoeste 12 Oeste 0 -- -- 56
2019-10-08 16:00:00 24.6 4 Oeste 8 Sudoeste 0 -- -- 45
2019-10-08 15:00:00 23.8 0 Calma 6 Oeste 0 -- -- 47
2019-10-08 14:00:00 21.6 2 Sudoeste 6 Sudoeste 0 -- -- 56
2019-10-08 13:00:00 19.8 2 Norte 5 Sudoeste 0 -- -- 54
2019-10-08 12:00:00 17.6 0 Calma 5 Sudoeste 0 -- -- 61
2019-10-08 11:00:00 15.5 0 Calma 5 Noroeste 0 -- -- 74
2019-10-08 10:00:00 14.3 0 Calma 4 Oeste 0 -- -- 54
2019-10-08 09:00:00 13.8 3 Sudeste 5 Oeste 0 -- -- 65
2019-10-08 08:00:00 14.1 0 Calma 5 Noroeste 0 -- -- 57
2019-10-08 07:00:00 14.4 2 Este 5 Oeste 0 -- -- 59
2019-10-08 06:00:00 14.4 3 Noroeste 6 Oeste 0 -- -- 67
2019-10-08 05:00:00 14.3 0 Calma 4 Oeste 0 -- -- 68
2019-10-08 04:00:00 14.4 0 Calma 7 Oeste 0 -- -- 73
2019-10-08 03:00:00 14.7 0 Calma 6 Oeste 0 -- -- 71
2019-10-08 02:00:00 14.9 0 Calma 5 Oeste 0 -- -- 68
2019-10-08 01:00:00 14.9 0 Calma 7 Oeste 0 -- -- 67
2019-10-08 00:00:00 15.2 0 Calma 6 Noroeste 0 -- -- 72
2019-10-07 23:00:00 15.7 4 Oeste 7 Oeste 0 -- -- 88
2019-10-07 22:00:00 16.2 0 Calma 5 Oeste 0 -- -- 88
2019-10-07 21:00:00 16.8 0 Calma 4 Oeste 0 -- -- 85
2019-10-07 20:00:00 17.6 4 Oeste 5 Oeste 0 -- -- 82
2019-10-07 19:00:00 18.9 3 Noroeste 8 Noroeste 0 -- -- 78
2019-10-07 18:00:00 19.6 3 Noroeste 9 Noroeste 0 -- -- 73
2019-10-07 17:00:00 19.9 2 Nordeste 8 Nordeste 0 -- -- 72
2019-10-07 16:00:00 19.9 4 Nordeste 10 Noroeste 0 -- -- 70
2019-10-07 15:00:00 19.7 5 Nordeste 12 Nordeste 0 -- -- 69
2019-10-07 14:00:00 19.1 0 Calma 6 Este 0 -- -- 73
2019-10-07 13:00:00 18.4 0 Calma 6 Este 0 -- -- 77
2019-10-07 12:00:00 17.5 3 Nordeste 6 Norte 0 -- -- 81
2019-10-07 11:00:00 16.3 3 Norte 8 Oeste 0 -- -- 87
2019-10-07 10:00:00 14.1 0 Calma 9 Sudoeste 0 -- -- 92
2019-10-07 09:00:00 13.4 0 Calma 5 Sur 0 -- -- 94
2019-10-07 08:00:00 13.2 0 Calma 9 Sudoeste 0 -- -- 93
2019-10-07 07:00:00 13.4 3 Sur 12 Sudoeste 0 -- -- 91
2019-10-07 06:00:00 13.4 4 Sudoeste 12 Sudoeste 0 -- -- 90
2019-10-07 05:00:00 13.9 4 Sudoeste 12 Sudoeste 0 -- -- 88
2019-10-07 04:00:00 13.9 4 Sudoeste 12 Sur 0 -- -- 89
2019-10-07 03:00:00 13.8 3 Sudoeste 8 Sur 0 -- -- 88
2019-10-07 02:00:00 14.4 2 Sudeste 5 Oeste 0 -- -- 85
2019-10-07 01:00:00 14.9 2 Sudoeste 6 Oeste 0 -- -- 81
2019-10-07 00:00:00 15.1 3 Oeste 6 Noroeste 0 -- -- 80
2019-10-06 23:00:00 15.7 3 Oeste 11 Sudoeste 0 -- -- 80
2019-10-06 22:00:00 16 6 Noroeste 11 Noroeste 0 -- -- 84
2019-10-06 21:00:00 16.3 6 Noroeste 14 Noroeste 0 -- -- 85
2019-10-06 20:00:00 16.3 6 Oeste 14 Noroeste 0 -- -- 92
2019-10-06 19:00:00 16.5 5 Oeste 16 Sudoeste 0.4 -- -- 93
2019-10-06 18:00:00 16.8 5 Sudoeste 20 Oeste 0 -- -- 92
2019-10-06 17:00:00 16.9 4 Oeste 14 Sudoeste 0 -- -- 92
2019-10-06 16:00:00 17.1 5 Oeste 23 Sudoeste 0.2 -- -- 91
2019-10-06 15:00:00 16.8 8 Sudoeste 21 Sudoeste 0 -- -- 93
2019-10-06 14:00:00 16.5 7 Sudoeste 18 Oeste 0.6 -- -- 90
2019-10-06 13:00:00 17.4 6 Sudoeste 17 Sudoeste 0 -- -- 85
2019-10-06 12:00:00 17.2 6 Sudoeste 20 Sudoeste 0 -- -- 84
2019-10-06 11:00:00 17.6 7 Sudoeste 17 Sudoeste 0 -- -- 77
2019-10-06 10:00:00 16.5 6 Oeste 21 Sudoeste 0 -- -- 81
2019-10-06 09:00:00 15.7 3 Sudoeste 12 Sudoeste 0 -- -- 83
2019-10-06 08:00:00 15.5 2 Sudoeste 14 Sudoeste 0 -- -- 82
2019-10-06 07:00:00 16.4 7 Sudoeste 17 Sudoeste 0 -- -- 75
2019-10-06 06:00:00 16.1 6 Sudoeste 15 Sur 0 -- -- 80
2019-10-06 05:00:00 15.9 3 Oeste 10 Oeste 0 -- -- 85
2019-10-06 04:00:00 16.5 5 Sudoeste 17 Sudoeste 0 -- -- 81
2019-10-06 03:00:00 16.5 4 Sudoeste 13 Sur 0 -- -- 86
2019-10-06 02:00:00 16.7 6 Sur 14 Sudeste 0 -- -- 84
2019-10-06 01:00:00 16.3 3 Sudoeste 14 Oeste 0 -- -- 90
2019-10-06 00:00:00 16.5 2 Oeste 6 Sur 0 -- -- 88
2019-10-05 23:00:00 16.7 3 Sur 8 Sudoeste 0 -- -- 86
2019-10-05 22:00:00 16.8 3 Sudoeste 5 Oeste 0 -- -- 85
2019-10-05 21:00:00 17.3 2 Oeste 6 Noroeste 0 -- -- 83
2019-10-05 20:00:00 17.7 2 Noroeste 11 Norte 0 -- -- 81
2019-10-05 19:00:00 18.2 4 Noroeste 10 Este 0 -- -- 76
2019-10-05 18:00:00 18.9 4 Nordeste 10 Nordeste 0 -- -- 73
2019-10-05 17:00:00 19.7 4 Norte 12 Norte 0 -- -- 71
2019-10-05 16:00:00 20.7 5 Norte 10 Noroeste 0 -- -- 62
2019-10-05 15:00:00 20.2 4 Norte 10 Norte 0 -- -- 66
2019-10-05 14:00:00 18.5 6 Norte 11 Norte 0 -- -- 78
2019-10-05 13:00:00 18.5 4 Noroeste 7 Noroeste 0 -- -- 80
2019-10-05 12:00:00 17.6 0 Calma 6 Sudoeste 0 -- -- 91
2019-10-05 11:00:00 16.5 4 Oeste 8 Oeste 0 -- -- 96
2019-10-05 10:00:00 15 2 Sur 8 Sudeste 0.2 -- -- 96
2019-10-05 09:00:00 15 0 Calma 4 Sur 0 -- -- 96
2019-10-05 08:00:00 15.1 0 Calma 7 Nordeste 0 -- -- 94
2019-10-05 07:00:00 15.5 3 Oeste 9 Sur 0 -- -- 90
2019-10-05 06:00:00 15.3 4 Sur 12 Sudoeste 0 -- -- 93
2019-10-05 05:00:00 15.5 6 Sudoeste 14 Sudoeste 0 -- -- 94
2019-10-05 04:00:00 15.2 5 Sudoeste 14 Sudoeste 0 -- -- 95
2019-10-05 03:00:00 15.4 4 Sur 10 Sur 0 -- -- 93
2019-10-05 02:00:00 14.9 2 Sudoeste 8 Oeste 0 -- -- 94
2019-10-05 01:00:00 15.5 0 Calma 5 Sudoeste 0 -- -- 93
2019-10-05 00:00:00 16 3 Oeste 9 Sudoeste 0 -- -- 92
2019-10-04 23:00:00 16.2 6 Sudoeste 13 Sudoeste 0 -- -- 91
2019-10-04 22:00:00 16.2 4 Sudoeste 11 Sudoeste 0 -- -- 91
2019-10-04 21:00:00 16.2 6 Sudoeste 13 Sudoeste 0 -- -- 91
2019-10-04 20:00:00 16.5 0 Calma 7 Sudoeste 0 -- -- 92
2019-10-04 19:00:00 16.6 4 Sudoeste 12 Sudoeste 0 -- -- 91
2019-10-04 18:00:00 16.6 5 Sudoeste 10 Sudoeste 0 -- -- 93
2019-10-04 17:00:00 16.9 3 Sudoeste 10 Sudoeste 0 -- -- 91
2019-10-04 16:00:00 17 6 Noroeste 17 Noroeste 0 -- -- 88
2019-10-04 15:00:00 17.1 4 Sudoeste 11 Oeste 0 -- -- 94
2019-10-04 14:00:00 17.4 3 Oeste 13 Oeste 0.8 -- -- 96
2019-10-04 13:00:00 16.9 7 Sudoeste 16 Sudoeste 0.4 -- -- 95
2019-10-04 12:00:00 17.1 8 Sudoeste 14 Sudoeste 0.6 -- -- 95
2019-10-04 11:00:00 16.8 6 Sudoeste 17 Sudoeste 0.2 -- -- 95
2019-10-04 10:00:00 16.7 5 Sudoeste 16 Oeste 0 -- -- 93
2019-10-04 09:00:00 16.7 3 Oeste 8 Oeste 0 -- -- 92
2019-10-04 08:00:00 17 2 Sur 6 Noroeste 0 -- -- 93
2019-10-04 07:00:00 16.1 4 Sudeste 8 Oeste 0 -- -- 89
2019-10-04 06:00:00 16.2 2 Sudoeste 4 Sudoeste 0 -- -- 88
2019-10-04 05:00:00 16.1 0 Calma 10 Sur 0 -- -- 83
2019-10-04 04:00:00 16.4 3 Oeste 9 Oeste 0 -- -- 78
2019-10-04 03:00:00 16.4 4 Oeste 12 Sur 0 -- -- 73
2019-10-04 02:00:00 17.6 5 Sudoeste 16 Sudoeste 0 -- -- 67
2019-10-04 01:00:00 18.1 6 Sudoeste 18 Sudoeste 0 -- -- 60
2019-10-04 00:00:00 17 6 Sudoeste 15 Sudoeste 0 -- -- 68
2019-10-03 23:00:00 15.3 3 Sur 10 Sudoeste 0 -- -- 79
2019-10-03 22:00:00 15.7 3 Oeste 6 Noroeste 0 -- -- 77
2019-10-03 21:00:00 16.3 2 Sudoeste 4 Noroeste 0 -- -- 76
2019-10-03 20:00:00 17.3 2 Noroeste 5 Norte 0 -- -- 72
2019-10-03 19:00:00 18.5 0 Calma 4 Norte 0 -- -- 67
2019-10-03 18:00:00 19.3 4 Norte 10 Norte 0 -- -- 64
2019-10-03 17:00:00 20 3 Nordeste 10 Este 0 -- -- 63
2019-10-03 16:00:00 20.9 3 Este 15 Nordeste 0 -- -- 64
2019-10-03 15:00:00 20.3 6 Norte 15 Nordeste 0 -- -- 65
2019-10-03 14:00:00 19.4 6 Norte 12 Nordeste 0 -- -- 66
2019-10-03 13:00:00 18.1 4 Nordeste 10 Nordeste 0 -- -- 68
2019-10-03 12:00:00 16.8 2 Sudoeste 7 Sudoeste 0 -- -- 78
2019-10-03 11:00:00 16 3 Sudoeste 6 Sudoeste 0 -- -- 83
2019-10-03 10:00:00 14.8 0 Calma 5 Oeste 0 -- -- 89
2019-10-03 09:00:00 13.9 3 Oeste 7 Oeste 0 -- -- 92
2019-10-03 08:00:00 14.2 0 Calma 4 Oeste 0 -- -- 93
2019-10-03 07:00:00 14.4 2 Oeste 6 Oeste 0 -- -- 93
2019-10-03 06:00:00 14.6 0 Calma 3 Oeste 0 -- -- 92
2019-10-03 05:00:00 14.7 0 Calma 5 Oeste 0 -- -- 93
2019-10-03 04:00:00 14.8 0 Calma 5 Sudoeste 0 -- -- 93
2019-10-03 03:00:00 15.2 0 Calma 6 Oeste 0 -- -- 93
2019-10-03 02:00:00 15.4 0 Calma 6 Oeste 0 -- -- 90
2019-10-03 01:00:00 15.6 2 Sudeste 12 Oeste 0 -- -- 90
2019-10-03 00:00:00 15.5 3 Sudoeste 16 Sudoeste 0 -- -- 89
2019-10-02 23:00:00 15.7 7 Sudoeste 14 Sudoeste 0 -- -- 89
2019-10-02 22:00:00 16.1 4 Oeste 10 Sudoeste 0 -- -- 86
2019-10-02 21:00:00 15.9 3 Oeste 10 Oeste 0 -- -- 88
2019-10-02 20:00:00 16 5 Noroeste 13 Noroeste 0 -- -- 88
2019-10-02 19:00:00 16.3 5 Oeste 13 Noroeste 0.2 -- -- 91
2019-10-02 18:00:00 16.9 4 Noroeste 13 Oeste 0 -- -- 89
2019-10-02 17:00:00 16.3 4 Oeste 25 Norte 2.6 -- -- 93
2019-10-02 16:00:00 18 8 Noroeste 21 Nordeste 0 -- -- 84
2019-10-02 15:00:00 17.7 8 Noroeste 37 Noroeste 0 -- -- 85
2019-10-02 14:00:00 17 9 Noroeste 32 Noroeste 0.6 -- -- 92
2019-10-02 13:00:00 16.2 8 Oeste 41 Norte 3.2 -- -- 94
2019-10-02 12:00:00 16.5 6 Sudoeste 22 Noroeste 0 -- -- 91
2019-10-02 11:00:00 15.8 11 Oeste 30 Noroeste 1 -- -- 95
2019-10-02 10:00:00 15.2 6 Oeste 30 Oeste 7.6 -- -- 95
2019-10-02 09:00:00 15.2 14 Sudoeste 37 Sudoeste 4.8 -- -- 96
2019-10-02 08:00:00 14.9 12 Sudoeste 33 Oeste 2.4 -- -- 96
2019-10-02 07:00:00 14.9 9 Sudoeste 39 Sudoeste 5.6 -- -- 95
2019-10-02 06:00:00 14.9 14 Sudoeste 34 Oeste 9.4 -- -- 94
2019-10-02 05:00:00 15.3 12 Sudoeste 40 Oeste 1.6 -- -- 92
2019-10-02 04:00:00 15.5 12 Sudoeste 41 Noroeste 2.4 -- -- 91
2019-10-02 03:00:00 16.1 12 Oeste 44 Oeste 4 -- -- 89
2019-10-02 02:00:00 18.2 7 Oeste 37 Oeste 0 -- -- 76
2019-10-02 01:00:00 18.2 9 Oeste 35 Oeste 0 -- -- 75
2019-10-02 00:00:00 17.9 9 Oeste 35 Sudoeste 0 -- -- 79
2019-10-01 23:00:00 18.5 13 Noroeste 35 Sudoeste 0 -- -- 76
2019-10-01 22:00:00 17.9 8 Noroeste 29 Oeste 0.4 -- -- 84
2019-10-01 21:00:00 18.3 9 Oeste 27 Noroeste 0 -- -- 81
2019-10-01 20:00:00 18.4 8 Oeste 21 Oeste 0.2 -- -- 82
2019-10-01 19:00:00 19.1 7 Noroeste 22 Oeste 0 -- -- 79
2019-10-01 18:00:00 19.1 5 Oeste 27 Noroeste 0 -- -- 81
2019-10-01 17:00:00 19.6 10 Noroeste 33 Norte 0 -- -- 80
2019-10-01 16:00:00 20.9 6 Noroeste 22 Oeste 0 -- -- 73
2019-10-01 15:00:00 21.5 6 Oeste 21 Noroeste 0 -- -- 75
2019-10-01 14:00:00 21 3 Oeste 16 Sudoeste 0 -- -- 79
2019-10-01 13:00:00 21.4 5 Oeste 21 Sur 0 -- -- 77
2019-10-01 12:00:00 20.5 8 Sudoeste 24 Sudoeste 0 -- -- 82
2019-10-01 11:00:00 19.9 6 Sudoeste 21 Sudoeste 0 -- -- 87
2019-10-01 10:00:00 19 8 Sudoeste 23 Oeste 0 -- -- 91
2019-10-01 09:00:00 18.3 10 Sudoeste 23 Sudoeste 0 -- -- 92
2019-10-01 08:00:00 17 5 Oeste 12 Oeste 0 -- -- 93
2019-10-01 07:00:00 17.2 2 Este 6 Oeste 0 -- -- 94
2019-10-01 06:00:00 17.5 2 Norte 6 Sudoeste 0 -- -- 92
2019-10-01 05:00:00 17.6 0 Calma 9 Sur 0 -- -- 92
2019-10-01 04:00:00 18.1 5 Sudoeste 12 Sudoeste 0 -- -- 92
2019-10-01 03:00:00 18 0 Calma 5 Oeste 0 -- -- 92
2019-10-01 02:00:00 18.2 2 Noroeste 5 Sudoeste 0 -- -- 91
2019-10-01 01:00:00 18.3 3 Oeste 9 Sudoeste 0 -- -- 91
2019-10-01 00:00:00 18.7 0 Calma 5 Oeste 0 -- -- 91
2019-09-30 23:00:00 19.2 0 Calma 4 Oeste 0 -- -- 91
2019-09-30 22:00:00 19.6 0 Calma 4 Noroeste 0 -- -- 90
2019-09-30 21:00:00 20.2 2 Noroeste 4 Noroeste 0 -- -- 88
2019-09-30 20:00:00 21.4 0 Calma 5 Norte 0 -- -- 83
2019-09-30 19:00:00 23.1 0 Calma 6 Norte 0 -- -- 76
2019-09-30 18:00:00 23.4 2 Norte 8 Norte 0 -- -- 73
2019-09-30 17:00:00 24 5 Norte 9 Nordeste 0 -- -- 72
2019-09-30 16:00:00 24.5 4 Norte 12 Noroeste 0 -- -- 71
2019-09-30 15:00:00 24.1 7 Noroeste 15 Noroeste 0 -- -- 71
2019-09-30 14:00:00 23.6 7 Norte 13 Norte 0 -- -- 74
2019-09-30 13:00:00 22.2 5 Norte 18 Norte 0 -- -- 80
2019-09-30 12:00:00 21.5 3 Este 11 Este 0 -- -- 81
2019-09-30 11:00:00 19.5 0 Calma 4 Nordeste 0.2 -- -- 94
2019-09-30 10:00:00 18.3 3 Oeste 6 Oeste 0 -- -- 95
2019-09-30 09:00:00 17.9 0 Calma 5 Sudoeste 0 -- -- 95
2019-09-30 08:00:00 17.8 0 Calma 5 Oeste 0 -- -- 95
2019-09-30 07:00:00 17.6 4 Sudoeste 7 Oeste 0 -- -- 96
2019-09-30 06:00:00 18 0 Calma 4 Sudoeste 0 -- -- 94
2019-09-30 05:00:00 18 2 Oeste 3 Sudoeste 0 -- -- 92
2019-09-30 04:00:00 18.4 0 Calma 3 Sudoeste 0 -- -- 90
2019-09-30 03:00:00 18.5 0 Calma 8 Sudoeste 0 -- -- 87
2019-09-30 02:00:00 18.7 0 Calma 7 Oeste 0 -- -- 88
2019-09-30 01:00:00 19.1 0 Calma 7 Oeste 0 -- -- 85
2019-09-30 00:00:00 19.3 0 Calma 5 Norte 0 -- -- 80
2019-09-29 23:00:00 20 0 Calma 6 Noroeste 0 -- -- 76
2019-09-29 22:00:00 19.8 3 Oeste 6 Norte 0 -- -- 71
2019-09-29 21:00:00 20.1 0 Calma 7 Noroeste 0 -- -- 67
2019-09-29 20:00:00 21.1 0 Calma 4 Sur 0 -- -- 61
2019-09-29 19:00:00 22.3 0 Calma 12 Nordeste 0 -- -- 54
2019-09-29 18:00:00 23.2 4 Nordeste 17 Norte 0 -- -- 51
2019-09-29 17:00:00 24.6 5 Nordeste 12 Este 0 -- -- 40
2019-09-29 16:00:00 26.1 4 Nordeste 15 Nordeste 0 -- -- 41
2019-09-29 15:00:00 24.9 2 Este 9 Nordeste 0 -- -- 59
2019-09-29 14:00:00 23.2 3 Este 14 Nordeste 0 -- -- 71
2019-09-29 13:00:00 23.4 5 Nordeste 10 Nordeste 0 -- -- 70
2019-09-29 12:00:00 22.7 3 Noroeste 6 Norte 0 -- -- 70
2019-09-29 11:00:00 20.8 3 Oeste 9 Sudoeste 0 -- -- 70
2019-09-29 10:00:00 19.8 2 Sudeste 5 Noroeste 0 -- -- 75
2019-09-29 09:00:00 18.7 0 Calma 5 Sudeste 0 -- -- 71
2019-09-29 08:00:00 18.2 0 Calma 6 Sudoeste 0 -- -- 73
2019-09-29 07:00:00 17.5 2 Sur 9 Oeste 0 -- -- 76
2019-09-29 06:00:00 16.6 0 Calma 4 Norte 0 -- -- 84
2019-09-29 05:00:00 16.3 0 Calma 5 Oeste 0 -- -- 92
2019-09-29 04:00:00 16.5 0 Calma 4 Noroeste 0 -- -- 93
2019-09-29 03:00:00 16.2 4 Oeste 7 Oeste 0 -- -- 95
2019-09-29 02:00:00 16.8 0 Calma 6 Sudoeste 0 -- -- 94
2019-09-29 01:00:00 16.7 0 Calma 8 Oeste 0 -- -- 94
2019-09-29 00:00:00 16.8 4 Sudoeste 10 Sudoeste 0 -- -- 93
2019-09-28 23:00:00 17.1 4 Oeste 9 Sudoeste 0 -- -- 90
2019-09-28 22:00:00 17.4 4 Oeste 7 Oeste 0 -- -- 91
2019-09-28 21:00:00 17.8 0 Calma 4 Nordeste 0 -- -- 89
2019-09-28 20:00:00 18.6 0 Calma 10 Este 0 -- -- 85
2019-09-28 19:00:00 20 4 Nordeste 10 Nordeste 0 -- -- 78
2019-09-28 18:00:00 20.5 5 Nordeste 14 Norte 0 -- -- 77
2019-09-28 17:00:00 20.9 4 Nordeste 13 Norte 0 -- -- 77
2019-09-28 16:00:00 20.1 4 Norte 15 Nordeste 0 -- -- 76
2019-09-28 15:00:00 20.6 7 Norte 15 Norte 0 -- -- 75
2019-09-28 14:00:00 20 4 Norte 14 Norte 0 -- -- 80
2019-09-28 13:00:00 19.1 5 Norte 15 Nordeste 0 -- -- 84
2019-09-28 12:00:00 18.3 3 Nordeste 8 Norte 0 -- -- 88
2019-09-28 11:00:00 17 2 Nordeste 6 Norte 0 -- -- 95
2019-09-28 10:00:00 16 0 Calma 4 Noroeste 0 -- -- 97
2019-09-28 09:00:00 15.3 0 Calma 4 Oeste 0.2 -- -- 97
2019-09-28 08:00:00 14.9 2 Sur 6 Sur 0 -- -- 97
2019-09-28 07:00:00 15.2 2 Sudoeste 5 Oeste 0 -- -- 96
2019-09-28 06:00:00 15.6 0 Calma 8 Norte 0.4 -- -- 96
2019-09-28 05:00:00 15.8 6 Noroeste 13 Noroeste 1 -- -- 95
2019-09-28 04:00:00 15.9 2 Sudoeste 16 Sur 0 -- -- 93
2019-09-28 03:00:00 15.5 8 Sur 14 Sur 0 -- -- 94
2019-09-28 02:00:00 15.5 3 Sur 10 Noroeste 0.2 -- -- 94
2019-09-28 01:00:00 16 4 Sudoeste 18 Sudoeste 0 -- -- 88
2019-09-28 00:00:00 16.3 3 Sudoeste 15 Oeste 0.2 -- -- 91
2019-09-27 23:00:00 17.5 4 Sudoeste 17 Noroeste 0 -- -- 89
2019-09-27 22:00:00 18.4 2 Oeste 6 Norte 0 -- -- 85
2019-09-27 21:00:00 18.7 0 Calma 4 Norte 0 -- -- 85
2019-09-27 20:00:00 18.9 0 Calma 13 Noroeste 0 -- -- 85
2019-09-27 19:00:00 19.9 4 Norte 13 Norte 0 -- -- 79
2019-09-27 18:00:00 20.9 4 Nordeste 14 Nordeste 0 -- -- 75
2019-09-27 17:00:00 21.5 5 Nordeste 13 Nordeste 0 -- -- 73
2019-09-27 16:00:00 21.6 3 Este 10 Sudoeste 0 -- -- 75
2019-09-27 15:00:00 22.2 5 Sudoeste 19 Norte 0 -- -- 72
2019-09-27 14:00:00 21.3 10 Noroeste 21 Noroeste 0 -- -- 76
2019-09-27 13:00:00 22 5 Oeste 16 Oeste 0 -- -- 66
2019-09-27 12:00:00 20.4 4 Oeste 11 Sudoeste 0 -- -- 73
2019-09-27 11:00:00 17.7 4 Oeste 8 Noroeste 0 -- -- 85
2019-09-27 10:00:00 16.2 3 Noroeste 6 Oeste 0 -- -- 86
2019-09-27 09:00:00 15.2 0 Calma 6 Oeste 0 -- -- 86
2019-09-27 08:00:00 14.8 4 Oeste 7 Oeste 0 -- -- 88
2019-09-27 07:00:00 14.9 0 Calma 5 Oeste 0 -- -- 93
2019-09-27 06:00:00 15.2 4 Oeste 7 Oeste 0 -- -- 94
2019-09-27 05:00:00 15.5 2 Oeste 9 Sur 0 -- -- 93
2019-09-27 04:00:00 16.4 4 Oeste 12 Sudoeste 0 -- -- 90
2019-09-27 03:00:00 16.8 4 Sudoeste 10 Sudoeste 0 -- -- 91
2019-09-27 02:00:00 16 4 Sudoeste 9 Oeste 0 -- -- 93
2019-09-27 01:00:00 16.4 2 Oeste 6 Oeste 0 -- -- 91
2019-09-27 00:00:00 17.3 0 Calma 4 Sudeste 0 -- -- 88
2019-09-26 23:00:00 18 0 Calma 4 Nordeste 0 -- -- 86
2019-09-26 22:00:00 18.4 0 Calma 9 Noroeste 0 -- -- 83
2019-09-26 21:00:00 18.7 0 Calma 8 Noroeste 0 -- -- 82
2019-09-26 20:00:00 19 0 Calma 6 Nordeste 0 -- -- 82
2019-09-26 19:00:00 19.4 0 Calma 10 Nordeste 0 -- -- 81
2019-09-26 18:00:00 19.8 4 Norte 13 Norte 0 -- -- 79
2019-09-26 17:00:00 20.5 6 Norte 15 Nordeste 0 -- -- 75
2019-09-26 16:00:00 20.9 5 Norte 13 Nordeste 0 -- -- 75
2019-09-26 15:00:00 21 5 Norte 13 Este 0 -- -- 75
2019-09-26 14:00:00 20.9 4 Nordeste 15 Nordeste 0 -- -- 77
2019-09-26 13:00:00 20.6 5 Norte 12 Norte 0 -- -- 76
2019-09-26 12:00:00 19.6 4 Nordeste 8 Norte 0 -- -- 78
2019-09-26 11:00:00 18.1 2 Oeste 5 Oeste 0 -- -- 81
2019-09-26 10:00:00 16.8 0 Calma 2 Nordeste 0 -- -- 90
2019-09-26 09:00:00 15.4 0 Calma 5 Oeste 0 -- -- 89
2019-09-26 08:00:00 15.2 0 Calma 9 Oeste 0 -- -- 89
2019-09-26 07:00:00 15 6 Oeste 9 Oeste 0 -- -- 88
2019-09-26 06:00:00 15.6 4 Oeste 6 Oeste 0 -- -- 85
2019-09-26 05:00:00 15.9 4 Oeste 6 Sudoeste 0 -- -- 85
2019-09-26 04:00:00 16.4 0 Calma 5 Oeste 0 -- -- 83
2019-09-26 03:00:00 17 2 Noroeste 6 Noroeste 0 -- -- 83
2019-09-26 02:00:00 17.5 3 Sudoeste 6 Noroeste 0 -- -- 83
2019-09-26 01:00:00 18.1 3 Sur 10 Sur 0 -- -- 79
2019-09-26 00:00:00 18.1 2 Sur 10 Sudoeste 0 -- -- 81
2019-09-25 23:00:00 18.1 3 Sur 10 Sudoeste 0 -- -- 80
2019-09-25 22:00:00 17.9 3 Sur 9 Oeste 0 -- -- 82
2019-09-25 21:00:00 17.9 3 Sur 8 Sudoeste 0 -- -- 81
2019-09-25 20:00:00 18.3 3 Sudoeste 12 Oeste 0 -- -- 78
2019-09-25 19:00:00 19.1 4 Oeste 17 Noroeste 0 -- -- 75
2019-09-25 18:00:00 19.8 7 Noroeste 18 Oeste 0 -- -- 71
2019-09-25 17:00:00 19.8 4 Sudoeste 18 Oeste 0 -- -- 71
2019-09-25 16:00:00 19.9 8 Oeste 26 Oeste 0 -- -- 68
2019-09-25 15:00:00 21.2 9 Noroeste 26 Noroeste 0 -- -- 62
2019-09-25 14:00:00 20.5 9 Oeste 25 Noroeste 0 -- -- 62
2019-09-25 13:00:00 19.6 5 Oeste 23 Sudoeste 0 -- -- 66
2019-09-25 12:00:00 18.7 6 Sudoeste 22 Oeste 0 -- -- 69
2019-09-25 11:00:00 17.9 7 Sudoeste 21 Sudoeste 0 -- -- 71
2019-09-25 10:00:00 17.4 8 Sudoeste 25 Sudoeste 0 -- -- 72
2019-09-25 09:00:00 16.8 9 Sudoeste 27 Sudoeste 0 -- -- 73
2019-09-25 08:00:00 17 10 Sudoeste 25 Oeste 0 -- -- 75
2019-09-25 07:00:00 16.6 8 Sudoeste 18 Sudoeste 0 -- -- 80
2019-09-25 06:00:00 17.1 5 Oeste 18 Sur 0 -- -- 80
2019-09-25 05:00:00 17.2 9 Sudoeste 18 Sur 0 -- -- 78
2019-09-25 04:00:00 17.3 8 Sudoeste 20 Sudoeste 0 -- -- 77
2019-09-25 03:00:00 17 8 Sudoeste 17 Sudoeste 0.2 -- -- 79
2019-09-25 02:00:00 16.8 9 Sudoeste 21 Oeste 0 -- -- 80
2019-09-25 01:00:00 16.3 11 Sudoeste 23 Sudoeste 0 -- -- 85
2019-09-25 00:00:00 17 9 Sudoeste 24 Oeste 0 -- -- 81
2019-09-24 23:00:00 16.9 9 Sudoeste 21 Oeste 0.2 -- -- 83
2019-09-24 22:00:00 17.5 8 Sudoeste 20 Sur 0 -- -- 77
2019-09-24 21:00:00 18.9 3 Sudoeste 13 Sudoeste 0 -- -- 75
2019-09-24 20:00:00 19.1 5 Sudoeste 11 Sudoeste 0 -- -- 74
2019-09-24 19:00:00 19.2 4 Sudoeste 15 Oeste 0 -- -- 78
2019-09-24 18:00:00 19.5 5 Sudoeste 17 Oeste 0 -- -- 77
2019-09-24 17:00:00 20.1 6 Oeste 19 Oeste 0 -- -- 74
2019-09-24 16:00:00 19.6 6 Sudoeste 27 Noroeste 0 -- -- 77
2019-09-24 15:00:00 21.6 10 Noroeste 28 Noroeste 0 -- -- 77
2019-09-24 14:00:00 23.3 7 Nordeste 16 Norte 0 -- -- 74
2019-09-24 13:00:00 23.8 5 Norte 14 Noroeste 0 -- -- 68
2019-09-24 12:00:00 22.8 0 Calma 7 Norte 0 -- -- 64
2019-09-24 11:00:00 22.1 0 Calma 9 Noroeste 0 -- -- 73
2019-09-24 10:00:00 22.2 5 Oeste 13 Oeste 0 -- -- 54
2019-09-24 09:00:00 22.3 2 Oeste 22 Sudoeste 0 -- -- 54
2019-09-24 08:00:00 24.1 9 Sudoeste 39 Oeste 0 -- -- 45
2019-09-24 07:00:00 23.9 13 Sudoeste 33 Sur 0 -- -- 45
2019-09-24 06:00:00 23.2 8 Oeste 24 Sudoeste 0 -- -- 45
2019-09-24 05:00:00 22.1 5 Oeste 17 Oeste 0 -- -- 49
2019-09-24 04:00:00 21.3 5 Oeste 14 Oeste 0 -- -- 54
2019-09-24 03:00:00 18.8 4 Oeste 6 Sudoeste 0 -- -- 65
2019-09-24 02:00:00 17.9 3 Oeste 10 Noroeste 0 -- -- 74
2019-09-24 01:00:00 19.3 3 Oeste 5 Oeste 0 -- -- 68
2019-09-24 00:00:00 19.5 0 Calma 5 Noroeste 0 -- -- 73
2019-09-23 23:00:00 19.4 0 Calma 4 Noroeste 0 -- -- 76
2019-09-23 22:00:00 19.7 0 Calma 4 Oeste 0 -- -- 78
2019-09-23 21:00:00 19.9 3 Noroeste 4 Oeste 0 -- -- 78
2019-09-23 20:00:00 20.7 0 Calma 4 Oeste 0 -- -- 75
2019-09-23 19:00:00 21.5 0 Calma 5 Noroeste 0 -- -- 72
2019-09-23 18:00:00 22.2 3 Noroeste 6 Noroeste 0 -- -- 69
2019-09-23 17:00:00 22.9 4 Noroeste 7 Noroeste 0 -- -- 64
2019-09-23 16:00:00 23 3 Norte 9 Norte 0 -- -- 64
2019-09-23 15:00:00 22.8 5 Norte 11 Norte 0 -- -- 66
2019-09-23 14:00:00 22.8 2 Norte 5 Nordeste 0 -- -- 64
2019-09-23 13:00:00 20.8 0 Calma 4 Sudeste 0 -- -- 73
2019-09-23 12:00:00 19.5 0 Calma 5 Norte 0 -- -- 77
2019-09-23 11:00:00 17.8 0 Calma 3 Noroeste 0 -- -- 84
2019-09-23 10:00:00 16 0 Calma 5 Oeste 0 -- -- 88
2019-09-23 09:00:00 14.7 3 Oeste 7 Oeste 0 -- -- 85
2019-09-23 08:00:00 14.1 0 Calma 8 Oeste 0 -- -- 88
2019-09-23 07:00:00 14.2 0 Calma 6 Oeste 0 -- -- 88
2019-09-23 06:00:00 14.5 0 Calma 3 Este 0 -- -- 87
2019-09-23 05:00:00 14.6 0 Calma 4 Oeste 0 -- -- 86
2019-09-23 04:00:00 14.9 3 Oeste 5 Oeste 0 -- -- 85
2019-09-23 03:00:00 15.2 4 Oeste 5 Oeste 0 -- -- 85
2019-09-23 02:00:00 15.6 0 Calma 3 Norte 0 -- -- 84
2019-09-23 01:00:00 16 0 Calma 5 Oeste 0 -- -- 83
2019-09-23 00:00:00 16.4 4 Noroeste 6 Oeste 0 -- -- 81
2019-09-22 23:00:00 17.1 0 Calma 4 Noroeste 0 -- -- 80
2019-09-22 22:00:00 17.8 0 Calma 4 Sur 0 -- -- 76
2019-09-22 21:00:00 18.3 2 Sudoeste 7 Sudoeste 0 -- -- 74
2019-09-22 20:00:00 18.9 0 Calma 13 Noroeste 0 -- -- 74
2019-09-22 19:00:00 20 5 Norte 15 Norte 0 -- -- 69
2019-09-22 18:00:00 20.6 6 Noroeste 17 Noroeste 0 -- -- 67
2019-09-22 17:00:00 21.2 8 Noroeste 15 Norte 0 -- -- 63
2019-09-22 16:00:00 21.1 6 Norte 12 Norte 0 -- -- 66
2019-09-22 15:00:00 21.1 4 Noroeste 14 Noroeste 0 -- -- 69
2019-09-22 14:00:00 20.1 4 Noroeste 9 Noroeste 0 -- -- 78
2019-09-22 13:00:00 19.2 0 Calma 5 Noroeste 0 -- -- 90
2019-09-22 12:00:00 17.8 3 Noroeste 7 Sudoeste 0 -- -- 96
2019-09-22 11:00:00 17.1 4 Noroeste 8 Noroeste 0 -- -- 97
2019-09-22 10:00:00 15.8 3 Sur 8 Sur 0.6 -- -- 96
2019-09-22 09:00:00 15.7 0 Calma 7 Sudoeste 3.2 -- -- 96
2019-09-22 08:00:00 15.7 3 Oeste 20 Noroeste 6.6 -- -- 95
2019-09-22 07:00:00 16.7 0 Calma 13 Oeste 5.6 -- -- 94
2019-09-22 06:00:00 17.2 0 Calma 10 Sudoeste 3.2 -- -- 92
2019-09-22 05:00:00 18.5 4 Sudoeste 16 Oeste 0.2 -- -- 89
2019-09-22 04:00:00 20.4 6 Sudoeste 31 Noroeste 0 -- -- 83
2019-09-22 03:00:00 23.9 4 Sudeste 27 Sudeste 0 -- -- 60
2019-09-22 02:00:00 24.6 8 Sur 30 Sur 0 -- -- 55
2019-09-22 01:00:00 24.2 3 Sudeste 16 Sur 0 -- -- 56
2019-09-22 00:00:00 23.9 4 Sudeste 21 Sur 0 -- -- 56
2019-09-21 23:00:00 25.3 10 Sur 32 Sur 0 -- -- 50
2019-09-21 22:00:00 25.3 5 Sur 16 Sudoeste 0 -- -- 50
2019-09-21 21:00:00 25.5 4 Sudoeste 20 Sur 0 -- -- 49
2019-09-21 20:00:00 25.1 6 Sudeste 23 Sudoeste 0 -- -- 53
2019-09-21 19:00:00 25.3 4 Sudeste 21 Sur 0 -- -- 54
2019-09-21 18:00:00 25.6 4 Sudeste 15 Sudoeste 0 -- -- 54
2019-09-21 17:00:00 25.6 4 Sudeste 20 Sudeste 0 -- -- 55
2019-09-21 16:00:00 25.3 3 Sudeste 18 Sur 0 -- -- 56
2019-09-21 15:00:00 26.7 6 Sudeste 29 Sur 0 -- -- 52
2019-09-21 14:00:00 24.4 5 Sudeste 21 Este 0 -- -- 59
2019-09-21 13:00:00 23.7 5 Sudeste 30 Sur 0 -- -- 60
2019-09-21 12:00:00 24.5 6 Sudeste 32 Sur 0 -- -- 60
2019-09-21 11:00:00 22.7 7 Sur 23 Sudeste 0 -- -- 64
2019-09-21 10:00:00 22.8 5 Noroeste 64 Sur 0 -- -- 64
2019-09-21 09:00:00 22.7 15 Sudeste 47 Sur 0 -- -- 63
2019-09-21 08:00:00 22.4 12 Sudeste 41 Sur 0 -- -- 64
2019-09-21 07:00:00 22.6 12 Sudeste 40 Sudeste 0 -- -- 61
2019-09-21 06:00:00 22.4 9 Sudeste 42 Sudeste 0 -- -- 61
2019-09-21 05:00:00 22.5 9 Sudoeste 45 Sur 0 -- -- 61
2019-09-21 04:00:00 23.6 14 Sur 52 Sur 0 -- -- 55
2019-09-21 03:00:00 23.3 11 Sur 37 Sudeste 0 -- -- 58
2019-09-21 02:00:00 23.4 6 Sur 17 Sur 0 -- -- 57
2019-09-21 01:00:00 24.6 7 Sur 24 Oeste 0 -- -- 57
2019-09-21 00:00:00 25.2 9 Sudoeste 25 Sudoeste 0 -- -- 52
2019-09-20 23:00:00 26.1 7 Noroeste 27 Sur 0 -- -- 50
2019-09-20 22:00:00 26.6 7 Sudeste 30 Sudeste 0 -- -- 49
2019-09-20 21:00:00 26.2 3 Sudeste 20 Este 0 -- -- 49
2019-09-20 20:00:00 26.4 0 Calma 12 Este 0 -- -- 52
2019-09-20 19:00:00 26.8 2 Noroeste 9 Sur 0 -- -- 52
2019-09-20 18:00:00 27.8 3 Sudeste 13 Sur 0 -- -- 52
2019-09-20 17:00:00 29.3 3 Sur 13 Sudeste 0 -- -- 49
2019-09-20 16:00:00 28.9 3 Sur 11 Sur 0 -- -- 51
2019-09-20 15:00:00 27.9 2 Sudeste 16 Sudeste 0 -- -- 56
2019-09-20 14:00:00 25.7 3 Sur 16 Sur 0 -- -- 59
2019-09-20 13:00:00 25.2 6 Sur 18 Oeste 0 -- -- 58
2019-09-20 12:00:00 24.1 6 Sur 23 Sur 0 -- -- 61
2019-09-20 11:00:00 22.3 3 Oeste 13 Oeste 0 -- -- 70
2019-09-20 10:00:00 19.8 6 Oeste 9 Oeste 0 -- -- 81
2019-09-20 09:00:00 18.1 4 Oeste 6 Sudoeste 0 -- -- 90
2019-09-20 08:00:00 16.9 3 Oeste 6 Noroeste 0 -- -- 97
2019-09-20 07:00:00 16.4 0 Calma 9 Oeste 0 -- -- 97
2019-09-20 06:00:00 16.3 2 Sudoeste 5 Oeste 0 -- -- 96
2019-09-20 05:00:00 16.2 3 Oeste 6 Oeste 0 -- -- 96
2019-09-20 04:00:00 16.4 0 Calma 3 Este 0 -- -- 95
2019-09-20 03:00:00 16.6 0 Calma 5 Noroeste 0 -- -- 94
2019-09-20 02:00:00 16.8 0 Calma 4 Oeste 0 -- -- 94
2019-09-20 01:00:00 16.9 0 Calma 3 Norte 0 -- -- 93
2019-09-20 00:00:00 17.2 2 Oeste 4 Oeste 0 -- -- 91
2019-09-19 23:00:00 17.7 0 Calma 3 Este 0 -- -- 90
2019-09-19 22:00:00 18 0 Calma 5 Norte 0 -- -- 88
2019-09-19 21:00:00 18.7 0 Calma 7 Oeste 0 -- -- 84
2019-09-19 20:00:00 19.7 3 Oeste 6 Oeste 0 -- -- 80
2019-09-19 19:00:00 20.9 3 Oeste 8 Sudoeste 0 -- -- 75
2019-09-19 18:00:00 21.8 0 Calma 4 Este 0 -- -- 77
2019-09-19 17:00:00 21.6 0 Calma 8 Nordeste 0 -- -- 77
2019-09-19 16:00:00 22.2 4 Norte 9 Norte 0 -- -- 77
2019-09-19 15:00:00 22.4 3 Norte 11 Sudoeste 0 -- -- 73
2019-09-19 14:00:00 21.9 5 Sudoeste 12 Sudoeste 0 -- -- 73
2019-09-19 13:00:00 21.7 5 Noroeste 13 Sudoeste 0 -- -- 76
2019-09-19 12:00:00 20.5 6 Oeste 14 Sudoeste 0 -- -- 79
2019-09-19 11:00:00 19.1 4 Oeste 12 Noroeste 0 -- -- 85
2019-09-19 10:00:00 17 0 Calma 8 Sudoeste 0 -- -- 96
2019-09-19 09:00:00 16.1 0 Calma 5 Oeste 0 -- -- 96
2019-09-19 08:00:00 16.3 0 Calma 4 Sudoeste 0 -- -- 95
2019-09-19 07:00:00 16.5 0 Calma 11 Sur 0 -- -- 94
2019-09-19 06:00:00 16.8 4 Sur 9 Sur 0 -- -- 95
2019-09-19 05:00:00 17.4 2 Oeste 11 Sudoeste 0 -- -- 92
2019-09-19 04:00:00 18 4 Sudoeste 11 Sudoeste 0 -- -- 92
2019-09-19 03:00:00 18 4 Sudoeste 13 Sudoeste 0 -- -- 91
2019-09-19 02:00:00 18.3 6 Sudoeste 16 Sudoeste 0 -- -- 92
2019-09-19 01:00:00 18.4 7 Sudoeste 17 Sudoeste 0 -- -- 92
2019-09-19 00:00:00 18.7 6 Sudoeste 14 Sudoeste 0 -- -- 91
2019-09-18 23:00:00 18.9 5 Sudoeste 15 Sudoeste 0 -- -- 90
2019-09-18 22:00:00 18.9 7 Sudoeste 18 Sudoeste 0 -- -- 90
2019-09-18 21:00:00 19.1 5 Sudoeste 14 Sudoeste 0 -- -- 89
2019-09-18 20:00:00 19.9 4 Oeste 16 Sudoeste 0 -- -- 86
2019-09-18 19:00:00 20.9 6 Sudoeste 19 Oeste 0 -- -- 83
2019-09-18 18:00:00 21.6 6 Sudoeste 13 Sudoeste 0 -- -- 80
2019-09-18 17:00:00 22.2 5 Noroeste 14 Noroeste 0 -- -- 79
2019-09-18 16:00:00 22.6 4 Noroeste 22 Sudoeste 0 -- -- 81
2019-09-18 15:00:00 22.9 7 Oeste 23 Noroeste 0 -- -- 78
2019-09-18 14:00:00 23.4 9 Oeste 19 Sudoeste 0 -- -- 76
2019-09-18 13:00:00 22.5 6 Oeste 14 Sudoeste 0 -- -- 78
2019-09-18 12:00:00 20.4 6 Sudoeste 15 Sudoeste 0 -- -- 83
2019-09-18 11:00:00 19.5 0 Calma 17 Sudoeste 0 -- -- 93
2019-09-18 10:00:00 19.7 6 Oeste 14 Oeste 0 -- -- 87
2019-09-18 09:00:00 18.8 3 Oeste 12 Sudoeste 0 -- -- 93
2019-09-18 08:00:00 18.5 3 Sudoeste 15 Sudoeste 0 -- -- 93
2019-09-18 07:00:00 18.6 4 Sudoeste 16 Sur 0.2 -- -- 92
2019-09-18 06:00:00 18.5 6 Sudoeste 19 Sudoeste 9.8 -- -- 93
2019-09-18 05:00:00 19.1 4 Oeste 10 Oeste 0 -- -- 91
2019-09-18 04:00:00 19.9 4 Sudoeste 19 Sudoeste 0 -- -- 87
2019-09-18 03:00:00 19.7 6 Sudoeste 19 Sudoeste 0 -- -- 91
2019-09-18 02:00:00 19.7 9 Sudoeste 22 Sudoeste 0 -- -- 92
2019-09-18 01:00:00 20.1 4 Oeste 25 Sudoeste 0 -- -- 86
2019-09-18 00:00:00 19.8 12 Sudoeste 25 Sudoeste 0 -- -- 92
2019-09-17 23:00:00 19.8 10 Sudoeste 20 Oeste 0 -- -- 92
2019-09-17 22:00:00 20 0 Calma 11 Sudoeste 0 -- -- 91
2019-09-17 21:00:00 20.8 5 Sudoeste 13 Oeste 0 -- -- 87
2019-09-15 18:00:00 -- -- -- -- -- -- -- -- --
2019-09-15 17:00:00 24.7 6 Sudoeste 14 Sudoeste 0 -- -- 61
2019-09-15 16:00:00 25.3 0 Calma 8 Norte 0 -- -- 60
2019-09-15 15:00:00 25.4 3 Nordeste 11 Nordeste 0 -- -- 64
2019-09-15 14:00:00 23.5 7 Nordeste 15 Nordeste 0 -- -- 73
2019-09-15 13:00:00 24.7 3 Nordeste 7 Noroeste 0 -- -- 68
2019-09-15 12:00:00 22.7 0 Calma 7 Sudoeste 0 -- -- 82
2019-09-15 11:00:00 21.1 3 Oeste 6 Sudoeste 0 -- -- 85
2019-09-15 10:00:00 20.3 0 Calma 5 Oeste 0 -- -- 86
2019-09-15 09:00:00 18.8 4 Oeste 6 Oeste 0 -- -- 86
2019-09-15 08:00:00 19 0 Calma 3 Noroeste 0 -- -- 84
2019-09-15 07:00:00 18.8 0 Calma 4 Oeste 0 -- -- 86
2019-09-15 06:00:00 18.5 0 Calma 8 Oeste 0 -- -- 88
2019-09-15 05:00:00 18.8 0 Calma 4 Noroeste 0 -- -- 88
2019-09-15 04:00:00 18.8 0 Calma 7 Sudoeste 0 -- -- 89
2019-09-15 03:00:00 18.9 4 Noroeste 6 Oeste 0 -- -- 89
2019-09-15 02:00:00 19 3 Sudoeste 6 Norte 0 -- -- 88
2019-09-15 01:00:00 19.8 3 Sudoeste 5 Oeste 0 -- -- 83
2019-09-15 00:00:00 20.1 0 Calma 4 Norte 0 -- -- 81